sensor_id;sensor_type;location;lat;lon;timestamp;pressure;altitude;pressure_sealevel;temperature
22828;BMP180;11580;52.562;13.418;2024-01-15T00:01:17;98344.00;;;8.10
22828;BMP180;11580;52.562;13.418;2024-01-15T00:03:44;98337.00;;;8.00
22828;BMP180;11580;52.562;13.418;2024-01-15T00:06:11;98343.00;;;8.00
22828;BMP180;11580;52.562;13.418;2024-01-15T00:08:38;98328.00;;;8.00
22828;BMP180;11580;52.562;13.418;2024-01-15T00:11:05;98324.00;;;8.00
22828;BMP180;11580;52.562;13.418;2024-01-15T00:13:33;98324.00;;;8.00
22828;BMP180;11580;52.562;13.418;2024-01-15T00:16:00;98323.00;;;8.00
22828;BMP180;11580;52.562;13.418;2024-01-15T00:18:28;98317.00;;;7.90
22828;BMP180;11580;52.562;13.418;2024-01-15T00:20:55;98301.00;;;7.90
22828;BMP180;11580;52.562;13.418;2024-01-15T00:23:23;98308.00;;;7.90
22828;BMP180;11580;52.562;13.418;2024-01-15T00:25:51;98314.00;;;7.90
22828;BMP180;11580;52.562;13.418;2024-01-15T00:28:18;98300.00;;;7.90
22828;BMP180;11580;52.562;13.418;2024-01-15T00:30:45;98289.00;;;7.80
22828;BMP180;11580;52.562;13.418;2024-01-15T00:33:13;98271.00;;;7.80
22828;BMP180;11580;52.562;13.418;2024-01-15T00:35:42;98272.00;;;7.80
22828;BMP180;11580;52.562;13.418;2024-01-15T00:38:09;98274.00;;;7.80
22828;BMP180;11580;52.562;13.418;2024-01-15T00:40:36;98264.00;;;7.80
22828;BMP180;11580;52.562;13.418;2024-01-15T00:43:03;98273.00;;;7.80
22828;BMP180;11580;52.562;13.418;2024-01-15T00:45:33;98258.00;;;7.80
22828;BMP180;11580;52.562;13.418;2024-01-15T00:48:00;98259.00;;;7.80
22828;BMP180;11580;52.562;13.418;2024-01-15T00:50:27;98263.00;;;7.80
22828;BMP180;11580;52.562;13.418;2024-01-15T00:52:56;98255.00;;;7.80
22828;BMP180;11580;52.562;13.418;2024-01-15T00:55:23;98261.00;;;7.80
22828;BMP180;11580;52.562;13.418;2024-01-15T00:57:50;98249.00;;;7.80
22828;BMP180;11580;52.562;13.418;2024-01-15T01:00:18;98258.00;;;7.80
22828;BMP180;11580;52.562;13.418;2024-01-15T01:02:45;98249.00;;;7.80
22828;BMP180;11580;52.562;13.418;2024-01-15T01:05:12;98240.00;;;7.70
22828;BMP180;11580;52.562;13.418;2024-01-15T01:07:40;98240.00;;;7.70
22828;BMP180;11580;52.562;13.418;2024-01-15T01:10:09;98235.00;;;7.60
22828;BMP180;11580;52.562;13.418;2024-01-15T01:12:36;98240.00;;;7.60
22828;BMP180;11580;52.562;13.418;2024-01-15T01:15:05;98238.00;;;7.60
22828;BMP180;11580;52.562;13.418;2024-01-15T01:17:32;98240.00;;;7.50
22828;BMP180;11580;52.562;13.418;2024-01-15T01:19:59;98237.00;;;7.40
22828;BMP180;11580;52.562;13.418;2024-01-15T01:22:30;98238.00;;;7.30
22828;BMP180;11580;52.562;13.418;2024-01-15T01:24:57;98242.00;;;7.30
22828;BMP180;11580;52.562;13.418;2024-01-15T01:27:25;98245.00;;;7.20
22828;BMP180;11580;52.562;13.418;2024-01-15T01:29:52;98231.00;;;7.20
22828;BMP180;11580;52.562;13.418;2024-01-15T01:32:20;98233.00;;;7.10
22828;BMP180;11580;52.562;13.418;2024-01-15T01:34:47;98228.00;;;7.10
22828;BMP180;11580;52.562;13.418;2024-01-15T01:37:14;98235.00;;;7.10
22828;BMP180;11580;52.562;13.418;2024-01-15T01:39:43;98230.00;;;7.10
22828;BMP180;11580;52.562;13.418;2024-01-15T01:42:10;98227.00;;;7.10
22828;BMP180;11580;52.562;13.418;2024-01-15T01:44:39;98230.00;;;7.00
22828;BMP180;11580;52.562;13.418;2024-01-15T01:47:07;98236.00;;;7.00
22828;BMP180;11580;52.562;13.418;2024-01-15T01:49:35;98229.00;;;7.10
22828;BMP180;11580;52.562;13.418;2024-01-15T01:52:05;98230.00;;;7.00
22828;BMP180;11580;52.562;13.418;2024-01-15T01:54:35;98222.00;;;7.00
22828;BMP180;11580;52.562;13.418;2024-01-15T01:57:05;98226.00;;;7.00
22828;BMP180;11580;52.562;13.418;2024-01-15T01:59:34;98227.00;;;7.00
22828;BMP180;11580;52.562;13.418;2024-01-15T02:02:04;98230.00;;;7.00
22828;BMP180;11580;52.562;13.418;2024-01-15T02:04:33;98227.00;;;7.00
22828;BMP180;11580;52.562;13.418;2024-01-15T02:07:01;98225.00;;;7.00
22828;BMP180;11580;52.562;13.418;2024-01-15T02:09:28;98220.00;;;6.90
22828;BMP180;11580;52.562;13.418;2024-01-15T02:11:55;98220.00;;;6.90
22828;BMP180;11580;52.562;13.418;2024-01-15T02:14:23;98209.00;;;6.90
22828;BMP180;11580;52.562;13.418;2024-01-15T02:16:50;98209.00;;;6.90
22828;BMP180;11580;52.562;13.418;2024-01-15T02:19:19;98214.00;;;6.80
22828;BMP180;11580;52.562;13.418;2024-01-15T02:21:46;98216.00;;;6.80
22828;BMP180;11580;52.562;13.418;2024-01-15T02:24:14;98221.00;;;6.70
22828;BMP180;11580;52.562;13.418;2024-01-15T02:26:42;98225.00;;;6.70
22828;BMP180;11580;52.562;13.418;2024-01-15T02:29:11;98226.00;;;6.70
22828;BMP180;11580;52.562;13.418;2024-01-15T02:31:39;98215.00;;;6.70
22828;BMP180;11580;52.562;13.418;2024-01-15T02:34:06;98218.00;;;6.70
22828;BMP180;11580;52.562;13.418;2024-01-15T02:36:33;98210.00;;;6.70
22828;BMP180;11580;52.562;13.418;2024-01-15T02:39:00;98206.00;;;6.80
22828;BMP180;11580;52.562;13.418;2024-01-15T02:41:29;98204.00;;;6.80
22828;BMP180;11580;52.562;13.418;2024-01-15T02:43:56;98188.00;;;6.80
22828;BMP180;11580;52.562;13.418;2024-01-15T02:46:23;98191.00;;;6.80
22828;BMP180;11580;52.562;13.418;2024-01-15T02:48:50;98195.00;;;6.80
22828;BMP180;11580;52.562;13.418;2024-01-15T02:51:18;98202.00;;;6.80
22828;BMP180;11580;52.562;13.418;2024-01-15T02:53:45;98202.00;;;6.90
22828;BMP180;11580;52.562;13.418;2024-01-15T02:56:12;98208.00;;;6.90
22828;BMP180;11580;52.562;13.418;2024-01-15T02:58:40;98200.00;;;6.90
22828;BMP180;11580;52.562;13.418;2024-01-15T03:01:08;98190.00;;;7.00
22828;BMP180;11580;52.562;13.418;2024-01-15T03:03:35;98190.00;;;7.00
22828;BMP180;11580;52.562;13.418;2024-01-15T03:06:02;98197.00;;;7.10
22828;BMP180;11580;52.562;13.418;2024-01-15T03:08:29;98190.00;;;7.10
22828;BMP180;11580;52.562;13.418;2024-01-15T03:10:56;98186.00;;;7.20
22828;BMP180;11580;52.562;13.418;2024-01-15T03:13:24;98195.00;;;7.20
22828;BMP180;11580;52.562;13.418;2024-01-15T03:15:53;98200.00;;;7.30
22828;BMP180;11580;52.562;13.418;2024-01-15T03:18:20;98194.00;;;7.30
22828;BMP180;11580;52.562;13.418;2024-01-15T03:20:47;98179.00;;;7.30
22828;BMP180;11580;52.562;13.418;2024-01-15T03:23:14;98175.00;;;7.30
22828;BMP180;11580;52.562;13.418;2024-01-15T03:25:42;98177.00;;;7.40
22828;BMP180;11580;52.562;13.418;2024-01-15T03:28:09;98178.00;;;7.40
22828;BMP180;11580;52.562;13.418;2024-01-15T03:30:36;98179.00;;;7.40
22828;BMP180;11580;52.562;13.418;2024-01-15T03:33:05;98177.00;;;7.40
22828;BMP180;11580;52.562;13.418;2024-01-15T03:35:32;98176.00;;;7.50
22828;BMP180;11580;52.562;13.418;2024-01-15T03:37:59;98164.00;;;7.50
22828;BMP180;11580;52.562;13.418;2024-01-15T03:40:26;98165.00;;;7.50
22828;BMP180;11580;52.562;13.418;2024-01-15T03:42:53;98162.00;;;7.60
22828;BMP180;11580;52.562;13.418;2024-01-15T03:45:20;98170.00;;;7.60
22828;BMP180;11580;52.562;13.418;2024-01-15T03:47:48;98160.00;;;7.60
22828;BMP180;11580;52.562;13.418;2024-01-15T03:50:16;98157.00;;;7.60
22828;BMP180;11580;52.562;13.418;2024-01-15T03:52:43;98159.00;;;7.60
22828;BMP180;11580;52.562;13.418;2024-01-15T03:55:10;98157.00;;;7.60
22828;BMP180;11580;52.562;13.418;2024-01-15T03:57:37;98147.00;;;7.60
22828;BMP180;11580;52.562;13.418;2024-01-15T04:00:07;98150.00;;;7.60
22828;BMP180;11580;52.562;13.418;2024-01-15T04:02:34;98150.00;;;7.60
22828;BMP180;11580;52.562;13.418;2024-01-15T04:05:01;98148.00;;;7.60
22828;BMP180;11580;52.562;13.418;2024-01-15T04:07:30;98127.00;;;7.60
22828;BMP180;11580;52.562;13.418;2024-01-15T04:09:57;98130.00;;;7.70
22828;BMP180;11580;52.562;13.418;2024-01-15T04:12:25;98132.00;;;7.50
22828;BMP180;11580;52.562;13.418;2024-01-15T04:14:52;98122.00;;;7.70
22828;BMP180;11580;52.562;13.418;2024-01-15T04:17:19;98119.00;;;7.70
22828;BMP180;11580;52.562;13.418;2024-01-15T04:19:47;98124.00;;;7.70
22828;BMP180;11580;52.562;13.418;2024-01-15T04:22:15;98127.00;;;7.70
22828;BMP180;11580;52.562;13.418;2024-01-15T04:24:43;98119.00;;;7.70
22828;BMP180;11580;52.562;13.418;2024-01-15T04:27:10;98135.00;;;7.70
22828;BMP180;11580;52.562;13.418;2024-01-15T04:29:38;98127.00;;;7.70
22828;BMP180;11580;52.562;13.418;2024-01-15T04:32:06;98136.00;;;7.60
22828;BMP180;11580;52.562;13.418;2024-01-15T04:34:33;98134.00;;;7.70
22828;BMP180;11580;52.562;13.418;2024-01-15T04:37:00;98112.00;;;7.60
22828;BMP180;11580;52.562;13.418;2024-01-15T04:39:27;98122.00;;;7.60
22828;BMP180;11580;52.562;13.418;2024-01-15T04:41:56;98117.00;;;7.60
22828;BMP180;11580;52.562;13.418;2024-01-15T04:44:23;98110.00;;;7.60
22828;BMP180;11580;52.562;13.418;2024-01-15T04:46:50;98110.00;;;7.60
22828;BMP180;11580;52.562;13.418;2024-01-15T04:49:17;98110.00;;;7.60
22828;BMP180;11580;52.562;13.418;2024-01-15T04:51:44;98117.00;;;7.60
22828;BMP180;11580;52.562;13.418;2024-01-15T04:54:11;98114.00;;;7.70
22828;BMP180;11580;52.562;13.418;2024-01-15T04:56:43;98114.00;;;7.70
22828;BMP180;11580;52.562;13.418;2024-01-15T04:59:13;98107.00;;;7.60
22828;BMP180;11580;52.562;13.418;2024-01-15T05:01:40;98103.00;;;7.70
22828;BMP180;11580;52.562;13.418;2024-01-15T05:04:07;98106.00;;;7.70
22828;BMP180;11580;52.562;13.418;2024-01-15T05:06:34;98094.00;;;7.70
22828;BMP180;11580;52.562;13.418;2024-01-15T05:09:02;98107.00;;;7.70
22828;BMP180;11580;52.562;13.418;2024-01-15T05:11:30;98098.00;;;7.70
22828;BMP180;11580;52.562;13.418;2024-01-15T05:13:57;98105.00;;;7.70
22828;BMP180;11580;52.562;13.418;2024-01-15T05:16:25;98103.00;;;7.70
22828;BMP180;11580;52.562;13.418;2024-01-15T05:18:52;98101.00;;;7.70
22828;BMP180;11580;52.562;13.418;2024-01-15T05:21:19;98101.00;;;7.70
22828;BMP180;11580;52.562;13.418;2024-01-15T05:23:47;98089.00;;;7.70
22828;BMP180;11580;52.562;13.418;2024-01-15T05:26:14;98083.00;;;7.70
22828;BMP180;11580;52.562;13.418;2024-01-15T05:28:41;98090.00;;;7.70
22828;BMP180;11580;52.562;13.418;2024-01-15T05:31:09;98064.00;;;7.70
22828;BMP180;11580;52.562;13.418;2024-01-15T05:33:38;98083.00;;;7.60
22828;BMP180;11580;52.562;13.418;2024-01-15T05:36:06;98082.00;;;7.60
22828;BMP180;11580;52.562;13.418;2024-01-15T05:38:33;98069.00;;;7.60
22828;BMP180;11580;52.562;13.418;2024-01-15T05:41:01;98065.00;;;7.60
22828;BMP180;11580;52.562;13.418;2024-01-15T05:43:28;98090.00;;;7.50
22828;BMP180;11580;52.562;13.418;2024-01-15T05:45:55;98079.00;;;7.50
22828;BMP180;11580;52.562;13.418;2024-01-15T05:48:22;98093.00;;;7.50
22828;BMP180;11580;52.562;13.418;2024-01-15T05:50:51;98083.00;;;7.50
22828;BMP180;11580;52.562;13.418;2024-01-15T05:53:18;98078.00;;;7.50
22828;BMP180;11580;52.562;13.418;2024-01-15T05:55:45;98080.00;;;7.50
22828;BMP180;11580;52.562;13.418;2024-01-15T05:58:12;98083.00;;;7.60
22828;BMP180;11580;52.562;13.418;2024-01-15T06:00:39;98077.00;;;7.60
22828;BMP180;11580;52.562;13.418;2024-01-15T06:03:06;98082.00;;;7.60
22828;BMP180;11580;52.562;13.418;2024-01-15T06:05:33;98077.00;;;7.60
22828;BMP180;11580;52.562;13.418;2024-01-15T06:08:03;98094.00;;;7.60
22828;BMP180;11580;52.562;13.418;2024-01-15T06:10:30;98085.00;;;7.60
22828;BMP180;11580;52.562;13.418;2024-01-15T06:12:57;98070.00;;;7.60
22828;BMP180;11580;52.562;13.418;2024-01-15T06:15:24;98078.00;;;7.60
22828;BMP180;11580;52.562;13.418;2024-01-15T06:17:51;98067.00;;;7.60
22828;BMP180;11580;52.562;13.418;2024-01-15T06:20:19;98077.00;;;7.60
22828;BMP180;11580;52.562;13.418;2024-01-15T06:22:46;98071.00;;;7.60
22828;BMP180;11580;52.562;13.418;2024-01-15T06:25:15;98071.00;;;7.60
22828;BMP180;11580;52.562;13.418;2024-01-15T06:27:42;98072.00;;;7.60
22828;BMP180;11580;52.562;13.418;2024-01-15T06:30:11;98068.00;;;7.60
22828;BMP180;11580;52.562;13.418;2024-01-15T06:32:39;98076.00;;;7.60
22828;BMP180;11580;52.562;13.418;2024-01-15T06:35:07;98070.00;;;7.60
22828;BMP180;11580;52.562;13.418;2024-01-15T06:37:36;98071.00;;;7.70
22828;BMP180;11580;52.562;13.418;2024-01-15T06:40:04;98073.00;;;7.70
22828;BMP180;11580;52.562;13.418;2024-01-15T06:42:33;98072.00;;;7.70
22828;BMP180;11580;52.562;13.418;2024-01-15T06:45:00;98060.00;;;7.70
22828;BMP180;11580;52.562;13.418;2024-01-15T06:47:28;98065.00;;;7.70
22828;BMP180;11580;52.562;13.418;2024-01-15T06:49:55;98080.00;;;7.80
22828;BMP180;11580;52.562;13.418;2024-01-15T06:52:22;98097.00;;;7.70
22828;BMP180;11580;52.562;13.418;2024-01-15T06:54:49;98088.00;;;7.70
22828;BMP180;11580;52.562;13.418;2024-01-15T06:57:16;98079.00;;;7.80
22828;BMP180;11580;52.562;13.418;2024-01-15T06:59:47;98086.00;;;7.80
22828;BMP180;11580;52.562;13.418;2024-01-15T07:02:14;98102.00;;;7.80
22828;BMP180;11580;52.562;13.418;2024-01-15T07:04:41;98116.00;;;7.80
22828;BMP180;11580;52.562;13.418;2024-01-15T07:07:08;98113.00;;;7.80
22828;BMP180;11580;52.562;13.418;2024-01-15T07:09:36;98102.00;;;7.70
22828;BMP180;11580;52.562;13.418;2024-01-15T07:12:03;98104.00;;;7.70
22828;BMP180;11580;52.562;13.418;2024-01-15T07:14:31;98110.00;;;7.70
22828;BMP180;11580;52.562;13.418;2024-01-15T07:16:59;98127.00;;;7.60
22828;BMP180;11580;52.562;13.418;2024-01-15T07:19:26;98111.00;;;7.60
22828;BMP180;11580;52.562;13.418;2024-01-15T07:21:54;98127.00;;;7.60
22828;BMP180;11580;52.562;13.418;2024-01-15T07:24:21;98117.00;;;7.60
22828;BMP180;11580;52.562;13.418;2024-01-15T07:26:48;98123.00;;;7.50
22828;BMP180;11580;52.562;13.418;2024-01-15T07:29:15;98123.00;;;7.50
22828;BMP180;11580;52.562;13.418;2024-01-15T07:31:49;98132.00;;;7.50
22828;BMP180;11580;52.562;13.418;2024-01-15T07:34:18;98129.00;;;7.40
22828;BMP180;11580;52.562;13.418;2024-01-15T07:36:45;98136.00;;;7.40
22828;BMP180;11580;52.562;13.418;2024-01-15T07:39:12;98139.00;;;7.40
22828;BMP180;11580;52.562;13.418;2024-01-15T07:41:40;98134.00;;;7.40
22828;BMP180;11580;52.562;13.418;2024-01-15T07:44:07;98133.00;;;7.40
22828;BMP180;11580;52.562;13.418;2024-01-15T07:46:35;98129.00;;;7.40
22828;BMP180;11580;52.562;13.418;2024-01-15T07:49:02;98140.00;;;7.40
22828;BMP180;11580;52.562;13.418;2024-01-15T07:51:32;98140.00;;;7.40
22828;BMP180;11580;52.562;13.418;2024-01-15T07:53:59;98151.00;;;7.50
22828;BMP180;11580;52.562;13.418;2024-01-15T07:56:26;98153.00;;;7.40
22828;BMP180;11580;52.562;13.418;2024-01-15T07:58:54;98145.00;;;7.50
22828;BMP180;11580;52.562;13.418;2024-01-15T08:01:21;98138.00;;;7.50
22828;BMP180;11580;52.562;13.418;2024-01-15T08:03:48;98146.00;;;7.50
22828;BMP180;11580;52.562;13.418;2024-01-15T08:06:16;98155.00;;;7.50
22828;BMP180;11580;52.562;13.418;2024-01-15T08:08:44;98149.00;;;7.50
22828;BMP180;11580;52.562;13.418;2024-01-15T08:11:11;98136.00;;;7.50
22828;BMP180;11580;52.562;13.418;2024-01-15T08:13:39;98153.00;;;7.60
22828;BMP180;11580;52.562;13.418;2024-01-15T08:16:06;98144.00;;;7.60
22828;BMP180;11580;52.562;13.418;2024-01-15T08:18:33;98158.00;;;7.60
22828;BMP180;11580;52.562;13.418;2024-01-15T08:21:00;98167.00;;;7.60
22828;BMP180;11580;52.562;13.418;2024-01-15T08:23:28;98161.00;;;7.60
22828;BMP180;11580;52.562;13.418;2024-01-15T08:25:58;98154.00;;;7.70
22828;BMP180;11580;52.562;13.418;2024-01-15T08:28:25;98144.00;;;7.70
22828;BMP180;11580;52.562;13.418;2024-01-15T08:30:52;98139.00;;;7.70
22828;BMP180;11580;52.562;13.418;2024-01-15T08:33:19;98151.00;;;7.80
22828;BMP180;11580;52.562;13.418;2024-01-15T08:35:47;98153.00;;;7.80
22828;BMP180;11580;52.562;13.418;2024-01-15T08:38:14;98155.00;;;7.90
22828;BMP180;11580;52.562;13.418;2024-01-15T08:40:41;98155.00;;;7.90
22828;BMP180;11580;52.562;13.418;2024-01-15T08:43:09;98163.00;;;7.90
22828;BMP180;11580;52.562;13.418;2024-01-15T08:45:37;98163.00;;;8.00
22828;BMP180;11580;52.562;13.418;2024-01-15T08:48:04;98170.00;;;8.00
22828;BMP180;11580;52.562;13.418;2024-01-15T08:50:32;98168.00;;;8.00
22828;BMP180;11580;52.562;13.418;2024-01-15T08:52:59;98155.00;;;8.00
22828;BMP180;11580;52.562;13.418;2024-01-15T08:55:27;98165.00;;;8.00
22828;BMP180;11580;52.562;13.418;2024-01-15T08:57:54;98158.00;;;8.00
22828;BMP180;11580;52.562;13.418;2024-01-15T09:00:22;98169.00;;;8.10
22828;BMP180;11580;52.562;13.418;2024-01-15T09:02:49;98165.00;;;8.10
22828;BMP180;11580;52.562;13.418;2024-01-15T09:05:17;98170.00;;;8.10
22828;BMP180;11580;52.562;13.418;2024-01-15T09:07:44;98171.00;;;8.10
22828;BMP180;11580;52.562;13.418;2024-01-15T09:10:12;98173.00;;;8.10
22828;BMP180;11580;52.562;13.418;2024-01-15T09:12:39;98163.00;;;8.10
22828;BMP180;11580;52.562;13.418;2024-01-15T09:15:07;98174.00;;;8.00
22828;BMP180;11580;52.562;13.418;2024-01-15T09:17:35;98180.00;;;8.10
22828;BMP180;11580;52.562;13.418;2024-01-15T09:20:03;98187.00;;;8.10
22828;BMP180;11580;52.562;13.418;2024-01-15T09:22:31;98198.00;;;8.10
22828;BMP180;11580;52.562;13.418;2024-01-15T09:24:59;98204.00;;;8.00
22828;BMP180;11580;52.562;13.418;2024-01-15T09:27:26;98200.00;;;8.10
22828;BMP180;11580;52.562;13.418;2024-01-15T09:29:53;98191.00;;;8.00
22828;BMP180;11580;52.562;13.418;2024-01-15T09:32:20;98194.00;;;8.00
22828;BMP180;11580;52.562;13.418;2024-01-15T09:34:49;98206.00;;;8.00
22828;BMP180;11580;52.562;13.418;2024-01-15T09:37:16;98189.00;;;8.10
22828;BMP180;11580;52.562;13.418;2024-01-15T09:39:44;98189.00;;;8.20
22828;BMP180;11580;52.562;13.418;2024-01-15T09:42:11;98193.00;;;8.20
22828;BMP180;11580;52.562;13.418;2024-01-15T09:44:39;98204.00;;;8.30
22828;BMP180;11580;52.562;13.418;2024-01-15T09:47:07;98197.00;;;8.40
22828;BMP180;11580;52.562;13.418;2024-01-15T09:49:35;98196.00;;;8.50
22828;BMP180;11580;52.562;13.418;2024-01-15T09:52:05;98204.00;;;8.60
22828;BMP180;11580;52.562;13.418;2024-01-15T09:54:33;98187.00;;;8.60
22828;BMP180;11580;52.562;13.418;2024-01-15T09:57:01;98196.00;;;8.70
22828;BMP180;11580;52.562;13.418;2024-01-15T09:59:28;98187.00;;;8.80
22828;BMP180;11580;52.562;13.418;2024-01-15T10:01:58;98194.00;;;8.80
22828;BMP180;11580;52.562;13.418;2024-01-15T10:04:26;98190.00;;;8.80
22828;BMP180;11580;52.562;13.418;2024-01-15T10:06:55;98179.00;;;8.90
22828;BMP180;11580;52.562;13.418;2024-01-15T10:09:24;98182.00;;;9.00
22828;BMP180;11580;52.562;13.418;2024-01-15T10:11:51;98173.00;;;9.00
22828;BMP180;11580;52.562;13.418;2024-01-15T10:14:20;98191.00;;;9.10
22828;BMP180;11580;52.562;13.418;2024-01-15T10:16:47;98189.00;;;9.10
22828;BMP180;11580;52.562;13.418;2024-01-15T10:19:14;98164.00;;;9.20
22828;BMP180;11580;52.562;13.418;2024-01-15T10:21:41;98176.00;;;9.20
22828;BMP180;11580;52.562;13.418;2024-01-15T10:24:08;98180.00;;;9.20
22828;BMP180;11580;52.562;13.418;2024-01-15T10:26:37;98177.00;;;9.30
22828;BMP180;11580;52.562;13.418;2024-01-15T10:29:04;98173.00;;;9.40
22828;BMP180;11580;52.562;13.418;2024-01-15T10:31:31;98182.00;;;9.40
22828;BMP180;11580;52.562;13.418;2024-01-15T10:34:10;98162.00;;;9.40
22828;BMP180;11580;52.562;13.418;2024-01-15T10:36:40;98198.00;;;9.40
22828;BMP180;11580;52.562;13.418;2024-01-15T10:39:07;98187.00;;;9.30
22828;BMP180;11580;52.562;13.418;2024-01-15T10:41:35;98178.00;;;9.30
22828;BMP180;11580;52.562;13.418;2024-01-15T10:44:03;98187.00;;;9.20
22828;BMP180;11580;52.562;13.418;2024-01-15T10:46:32;98185.00;;;9.20
22828;BMP180;11580;52.562;13.418;2024-01-15T10:49:00;98184.00;;;9.10
22828;BMP180;11580;52.562;13.418;2024-01-15T10:51:28;98189.00;;;9.10
22828;BMP180;11580;52.562;13.418;2024-01-15T10:53:56;98170.00;;;9.10
22828;BMP180;11580;52.562;13.418;2024-01-15T10:56:27;98179.00;;;9.10
22828;BMP180;11580;52.562;13.418;2024-01-15T10:58:56;98171.00;;;9.10
22828;BMP180;11580;52.562;13.418;2024-01-15T11:01:25;98169.00;;;9.10
22828;BMP180;11580;52.562;13.418;2024-01-15T11:03:54;98180.00;;;9.10
22828;BMP180;11580;52.562;13.418;2024-01-15T11:06:24;98185.00;;;9.10
22828;BMP180;11580;52.562;13.418;2024-01-15T11:08:53;98174.00;;;9.10
22828;BMP180;11580;52.562;13.418;2024-01-15T11:11:21;98198.00;;;9.10
22828;BMP180;11580;52.562;13.418;2024-01-15T11:13:49;98187.00;;;9.10
22828;BMP180;11580;52.562;13.418;2024-01-15T11:16:18;98152.00;;;9.10
22828;BMP180;11580;52.562;13.418;2024-01-15T11:19:05;98185.00;;;9.10
22828;BMP180;11580;52.562;13.418;2024-01-15T11:21:42;98192.00;;;9.00
22828;BMP180;11580;52.562;13.418;2024-01-15T11:24:10;98179.00;;;9.00
22828;BMP180;11580;52.562;13.418;2024-01-15T11:26:45;98195.00;;;9.00
22828;BMP180;11580;52.562;13.418;2024-01-15T11:29:31;98207.00;;;9.00
22828;BMP180;11580;52.562;13.418;2024-01-15T11:32:16;98198.00;;;9.00
22828;BMP180;11580;52.562;13.418;2024-01-15T11:34:58;98189.00;;;9.10
22828;BMP180;11580;52.562;13.418;2024-01-15T11:37:29;98191.00;;;9.10
22828;BMP180;11580;52.562;13.418;2024-01-15T11:40:19;98206.00;;;9.20
22828;BMP180;11580;52.562;13.418;2024-01-15T11:42:47;98208.00;;;9.10
22828;BMP180;11580;52.562;13.418;2024-01-15T11:45:18;98222.00;;;9.20
22828;BMP180;11580;52.562;13.418;2024-01-15T11:48:11;98196.00;;;9.10
22828;BMP180;11580;52.562;13.418;2024-01-15T11:50:42;98191.00;;;9.10
22828;BMP180;11580;52.562;13.418;2024-01-15T11:53:32;98212.00;;;9.00
22828;BMP180;11580;52.562;13.418;2024-01-15T11:56:05;98212.00;;;8.90
22828;BMP180;11580;52.562;13.418;2024-01-15T11:58:34;98229.00;;;8.80
22828;BMP180;11580;52.562;13.418;2024-01-15T12:01:03;98224.00;;;8.70
22828;BMP180;11580;52.562;13.418;2024-01-15T12:03:32;98215.00;;;8.60
22828;BMP180;11580;52.562;13.418;2024-01-15T12:06:02;98218.00;;;8.50
22828;BMP180;11580;52.562;13.418;2024-01-15T12:08:29;98221.00;;;8.40
22828;BMP180;11580;52.562;13.418;2024-01-15T12:10:56;98218.00;;;8.30
22828;BMP180;11580;52.562;13.418;2024-01-15T12:13:23;98221.00;;;8.20
22828;BMP180;11580;52.562;13.418;2024-01-15T12:15:50;98210.00;;;8.20
22828;BMP180;11580;52.562;13.418;2024-01-15T12:18:19;98211.00;;;8.20
22828;BMP180;11580;52.562;13.418;2024-01-15T12:20:46;98223.00;;;8.10
22828;BMP180;11580;52.562;13.418;2024-01-15T12:23:15;98233.00;;;8.10
22828;BMP180;11580;52.562;13.418;2024-01-15T12:25:43;98223.00;;;8.00
22828;BMP180;11580;52.562;13.418;2024-01-15T12:28:10;98223.00;;;8.00
22828;BMP180;11580;52.562;13.418;2024-01-15T12:30:38;98221.00;;;8.00
22828;BMP180;11580;52.562;13.418;2024-01-15T12:33:07;98214.00;;;7.90
22828;BMP180;11580;52.562;13.418;2024-01-15T12:35:35;98215.00;;;7.90
22828;BMP180;11580;52.562;13.418;2024-01-15T12:38:03;98213.00;;;7.90
22828;BMP180;11580;52.562;13.418;2024-01-15T12:40:33;98230.00;;;7.90
22828;BMP180;11580;52.562;13.418;2024-01-15T12:43:01;98223.00;;;7.90
22828;BMP180;11580;52.562;13.418;2024-01-15T12:45:29;98225.00;;;7.80
22828;BMP180;11580;52.562;13.418;2024-01-15T12:47:57;98225.00;;;7.80
22828;BMP180;11580;52.562;13.418;2024-01-15T12:50:25;98220.00;;;7.60
22828;BMP180;11580;52.562;13.418;2024-01-15T12:52:52;98247.00;;;7.70
22828;BMP180;11580;52.562;13.418;2024-01-15T12:55:19;98235.00;;;7.60
22828;BMP180;11580;52.562;13.418;2024-01-15T12:57:49;98239.00;;;7.60
22828;BMP180;11580;52.562;13.418;2024-01-15T13:00:18;98240.00;;;7.50
22828;BMP180;11580;52.562;13.418;2024-01-15T13:02:45;98248.00;;;7.50
22828;BMP180;11580;52.562;13.418;2024-01-15T13:05:13;98244.00;;;7.50
22828;BMP180;11580;52.562;13.418;2024-01-15T13:07:40;98259.00;;;7.60
22828;BMP180;11580;52.562;13.418;2024-01-15T13:10:07;98258.00;;;7.60
22828;BMP180;11580;52.562;13.418;2024-01-15T13:12:35;98260.00;;;7.60
22828;BMP180;11580;52.562;13.418;2024-01-15T13:15:04;98269.00;;;7.60
22828;BMP180;11580;52.562;13.418;2024-01-15T13:17:31;98264.00;;;7.70
22828;BMP180;11580;52.562;13.418;2024-01-15T13:19:58;98261.00;;;7.70
22828;BMP180;11580;52.562;13.418;2024-01-15T13:22:26;98269.00;;;7.70
22828;BMP180;11580;52.562;13.418;2024-01-15T13:24:57;98262.00;;;7.70
22828;BMP180;11580;52.562;13.418;2024-01-15T13:27:24;98268.00;;;7.70
22828;BMP180;11580;52.562;13.418;2024-01-15T13:29:52;98274.00;;;7.70
22828;BMP180;11580;52.562;13.418;2024-01-15T13:32:25;98258.00;;;7.70
22828;BMP180;11580;52.562;13.418;2024-01-15T13:34:53;98281.00;;;7.60
22828;BMP180;11580;52.562;13.418;2024-01-15T13:37:21;98273.00;;;7.60
22828;BMP180;11580;52.562;13.418;2024-01-15T13:39:50;98275.00;;;7.70
22828;BMP180;11580;52.562;13.418;2024-01-15T13:42:18;98279.00;;;7.70
22828;BMP180;11580;52.562;13.418;2024-01-15T13:44:47;98272.00;;;7.70
22828;BMP180;11580;52.562;13.418;2024-01-15T13:47:14;98292.00;;;7.70
22828;BMP180;11580;52.562;13.418;2024-01-15T13:49:43;98287.00;;;7.80
22828;BMP180;11580;52.562;13.418;2024-01-15T13:52:10;98296.00;;;7.80
22828;BMP180;11580;52.562;13.418;2024-01-15T13:54:38;98299.00;;;7.80
22828;BMP180;11580;52.562;13.418;2024-01-15T13:57:05;98305.00;;;7.80
22828;BMP180;11580;52.562;13.418;2024-01-15T13:59:33;98309.00;;;7.80
22828;BMP180;11580;52.562;13.418;2024-01-15T14:02:00;98313.00;;;7.80
22828;BMP180;11580;52.562;13.418;2024-01-15T14:04:27;98300.00;;;7.80
22828;BMP180;11580;52.562;13.418;2024-01-15T14:06:55;98313.00;;;7.70
22828;BMP180;11580;52.562;13.418;2024-01-15T14:09:23;98320.00;;;7.70
22828;BMP180;11580;52.562;13.418;2024-01-15T14:11:51;98330.00;;;7.60
22828;BMP180;11580;52.562;13.418;2024-01-15T14:14:19;98328.00;;;7.60